sensor_id;sensor_type;location;lat;lon;timestamp;P1;durP1;ratioP1;P2;durP2;ratioP2
82773;SDS011;72508;45.118;20.728;2024-02-23T00:09:35;15.23;;;9.52;;
82773;SDS011;72508;45.118;20.728;2024-02-23T00:19:37;14.77;;;8.88;;
82773;SDS011;72508;45.118;20.728;2024-02-23T00:29:39;13.00;;;9.88;;
82773;SDS011;72508;45.118;20.728;2024-02-23T00:39:41;13.70;;;9.13;;
82773;SDS011;72508;45.118;20.728;2024-02-23T00:49:43;12.73;;;7.68;;
82773;SDS011;72508;45.118;20.728;2024-02-23T00:59:45;12.63;;;8.85;;
82773;SDS011;72508;45.118;20.728;2024-02-23T01:09:46;10.88;;;7.25;;
82773;SDS011;72508;45.118;20.728;2024-02-23T01:19:48;10.77;;;5.60;;
82773;SDS011;72508;45.118;20.728;2024-02-23T01:29:50;11.23;;;5.13;;
82773;SDS011;72508;45.118;20.728;2024-02-23T01:39:52;13.25;;;8.05;;
82773;SDS011;72508;45.118;20.728;2024-02-23T01:49:54;10.82;;;6.65;;
82773;SDS011;72508;45.118;20.728;2024-02-23T01:59:58;10.57;;;6.18;;
82773;SDS011;72508;45.118;20.728;2024-02-23T02:10:03;12.15;;;6.97;;
82773;SDS011;72508;45.118;20.728;2024-02-23T02:20:06;10.20;;;6.97;;
82773;SDS011;72508;45.118;20.728;2024-02-23T02:30:12;9.48;;;6.80;;
82773;SDS011;72508;45.118;20.728;2024-02-23T02:40:14;11.07;;;6.80;;
82773;SDS011;72508;45.118;20.728;2024-02-23T02:50:16;10.52;;;7.00;;
82773;SDS011;72508;45.118;20.728;2024-02-23T03:00:17;9.50;;;6.03;;
82773;SDS011;72508;45.118;20.728;2024-02-23T03:10:19;8.52;;;6.13;;
82773;SDS011;72508;45.118;20.728;2024-02-23T03:20:21;8.80;;;5.68;;
82773;SDS011;72508;45.118;20.728;2024-02-23T03:30:22;8.20;;;5.95;;
82773;SDS011;72508;45.118;20.728;2024-02-23T03:40:24;9.93;;;5.65;;
82773;SDS011;72508;45.118;20.728;2024-02-23T03:50:26;8.75;;;6.57;;
82773;SDS011;72508;45.118;20.728;2024-02-23T04:00:27;8.23;;;5.22;;
82773;SDS011;72508;45.118;20.728;2024-02-23T04:10:29;8.35;;;6.47;;
82773;SDS011;72508;45.118;20.728;2024-02-23T04:20:31;7.35;;;4.70;;
82773;SDS011;72508;45.118;20.728;2024-02-23T04:30:33;6.05;;;5.45;;
82773;SDS011;72508;45.118;20.728;2024-02-23T04:40:35;6.55;;;4.93;;
82773;SDS011;72508;45.118;20.728;2024-02-23T04:50:37;5.95;;;2.47;;
82773;SDS011;72508;45.118;20.728;2024-02-23T05:00:39;4.43;;;3.42;;
82773;SDS011;72508;45.118;20.728;2024-02-23T05:10:41;8.50;;;5.32;;
82773;SDS011;72508;45.118;20.728;2024-02-23T05:20:42;7.90;;;5.53;;
82773;SDS011;72508;45.118;20.728;2024-02-23T05:30:44;5.00;;;3.70;;
82773;SDS011;72508;45.118;20.728;2024-02-23T05:40:49;6.72;;;5.65;;
82773;SDS011;72508;45.118;20.728;2024-02-23T05:50:51;8.77;;;5.80;;
82773;SDS011;72508;45.118;20.728;2024-02-23T06:00:53;6.80;;;4.80;;
82773;SDS011;72508;45.118;20.728;2024-02-23T06:10:55;8.63;;;6.05;;
82773;SDS011;72508;45.118;20.728;2024-02-23T06:20:57;9.68;;;6.45;;
82773;SDS011;72508;45.118;20.728;2024-02-23T06:31:03;11.75;;;6.53;;
82773;SDS011;72508;45.118;20.728;2024-02-23T06:41:05;34.47;;;11.80;;
82773;SDS011;72508;45.118;20.728;2024-02-23T06:51:11;17.02;;;8.27;;
82773;SDS011;72508;45.118;20.728;2024-02-23T07:01:16;13.50;;;8.52;;
82773;SDS011;72508;45.118;20.728;2024-02-23T07:11:32;15.45;;;8.55;;
82773;SDS011;72508;45.118;20.728;2024-02-23T07:21:35;56.33;;;19.35;;
82773;SDS011;72508;45.118;20.728;2024-02-23T07:31:39;12.13;;;6.20;;
82773;SDS011;72508;45.118;20.728;2024-02-23T07:41:44;16.02;;;9.07;;
82773;SDS011;72508;45.118;20.728;2024-02-23T07:51:48;8.75;;;5.75;;
82773;SDS011;72508;45.118;20.728;2024-02-23T08:01:51;11.25;;;7.45;;
82773;SDS011;72508;45.118;20.728;2024-02-23T08:11:57;11.65;;;4.32;;
82773;SDS011;72508;45.118;20.728;2024-02-23T08:22:00;11.48;;;8.00;;
82773;SDS011;72508;45.118;20.728;2024-02-23T08:32:02;11.88;;;7.45;;
82773;SDS011;72508;45.118;20.728;2024-02-23T08:42:19;10.20;;;7.30;;
82773;SDS011;72508;45.118;20.728;2024-02-23T08:52:20;10.13;;;4.70;;
82773;SDS011;72508;45.118;20.728;2024-02-23T09:02:24;9.48;;;4.95;;
82773;SDS011;72508;45.118;20.728;2024-02-23T09:12:26;10.85;;;5.05;;
82773;SDS011;72508;45.118;20.728;2024-02-23T09:22:28;11.95;;;4.97;;
82773;SDS011;72508;45.118;20.728;2024-02-23T09:32:50;14.63;;;7.45;;
82773;SDS011;72508;45.118;20.728;2024-02-23T09:42:56;10.75;;;5.05;;
82773;SDS011;72508;45.118;20.728;2024-02-23T09:53:42;16.85;;;5.75;;
82773;SDS011;72508;45.118;20.728;2024-02-23T10:03:41;12.18;;;7.20;;
82773;SDS011;72508;45.118;20.728;2024-02-23T10:13:44;12.73;;;4.43;;
82773;SDS011;72508;45.118;20.728;2024-02-23T10:23:48;13.05;;;6.45;;
82773;SDS011;72508;45.118;20.728;2024-02-23T10:33:54;8.10;;;3.35;;
82773;SDS011;72508;45.118;20.728;2024-02-23T10:44:03;11.68;;;4.90;;
82773;SDS011;72508;45.118;20.728;2024-02-23T10:54:08;12.15;;;8.68;;
82773;SDS011;72508;45.118;20.728;2024-02-23T11:04:30;14.02;;;5.07;;
82773;SDS011;72508;45.118;20.728;2024-02-23T11:14:35;9.68;;;4.55;;
82773;SDS011;72508;45.118;20.728;2024-02-23T11:24:50;15.50;;;5.97;;
82773;SDS011;72508;45.118;20.728;2024-02-23T11:35:05;10.32;;;4.82;;
82773;SDS011;72508;45.118;20.728;2024-02-23T11:45:07;10.93;;;5.30;;
82773;SDS011;72508;45.118;20.728;2024-02-23T11:55:09;15.02;;;5.28;;
82773;SDS011;72508;45.118;20.728;2024-02-23T12:05:11;18.60;;;6.55;;
82773;SDS011;72508;45.118;20.728;2024-02-23T12:15:15;15.68;;;6.10;;
82773;SDS011;72508;45.118;20.728;2024-02-23T12:25:17;10.10;;;4.68;;
82773;SDS011;72508;45.118;20.728;2024-02-23T12:35:19;9.10;;;4.07;;
82773;SDS011;72508;45.118;20.728;2024-02-23T12:45:20;11.60;;;5.28;;
82773;SDS011;72508;45.118;20.728;2024-02-23T12:55:23;11.20;;;4.97;;
82773;SDS011;72508;45.118;20.728;2024-02-23T13:05:24;8.63;;;4.13;;
82773;SDS011;72508;45.118;20.728;2024-02-23T13:15:26;9.48;;;4.35;;
82773;SDS011;72508;45.118;20.728;2024-02-23T13:25:29;10.57;;;4.63;;
82773;SDS011;72508;45.118;20.728;2024-02-23T13:35:33;11.15;;;7.07;;
82773;SDS011;72508;45.118;20.728;2024-02-23T13:45:48;13.93;;;5.97;;
82773;SDS011;72508;45.118;20.728;2024-02-23T13:55:53;9.75;;;4.38;;
82773;SDS011;72508;45.118;20.728;2024-02-23T14:05:55;9.52;;;4.88;;
82773;SDS011;72508;45.118;20.728;2024-02-23T14:15:57;7.50;;;3.92;;
82773;SDS011;72508;45.118;20.728;2024-02-23T14:25:58;11.45;;;4.75;;
82773;SDS011;72508;45.118;20.728;2024-02-23T14:36:00;9.52;;;4.43;;
82773;SDS011;72508;45.118;20.728;2024-02-23T14:46:02;11.40;;;5.07;;
82773;SDS011;72508;45.118;20.728;2024-02-23T14:56:04;11.95;;;4.88;;
82773;SDS011;72508;45.118;20.728;2024-02-23T15:06:06;15.05;;;7.32;;
82773;SDS011;72508;45.118;20.728;2024-02-23T15:16:09;18.52;;;6.60;;
82773;SDS011;72508;45.118;20.728;2024-02-23T15:26:14;17.38;;;7.93;;
82773;SDS011;72508;45.118;20.728;2024-02-23T15:36:15;17.58;;;6.97;;
82773;SDS011;72508;45.118;20.728;2024-02-23T15:46:17;17.05;;;6.88;;
82773;SDS011;72508;45.118;20.728;2024-02-23T15:56:19;13.65;;;6.68;;
82773;SDS011;72508;45.118;20.728;2024-02-23T16:06:21;29.98;;;11.15;;
82773;SDS011;72508;45.118;20.728;2024-02-23T16:16:23;25.35;;;10.18;;
82773;SDS011;72508;45.118;20.728;2024-02-23T16:26:25;26.90;;;13.80;;
82773;SDS011;72508;45.118;20.728;2024-02-23T16:36:27;19.80;;;10.18;;
82773;SDS011;72508;45.118;20.728;2024-02-23T16:46:29;21.00;;;8.98;;
82773;SDS011;72508;45.118;20.728;2024-02-23T16:56:31;20.35;;;9.50;;
82773;SDS011;72508;45.118;20.728;2024-02-23T17:06:32;15.57;;;7.40;;
82773;SDS011;72508;45.118;20.728;2024-02-23T17:16:35;11.32;;;6.53;;
82773;SDS011;72508;45.118;20.728;2024-02-23T17:26:36;16.85;;;8.20;;
82773;SDS011;72508;45.118;20.728;2024-02-23T17:36:38;25.02;;;12.40;;
82773;SDS011;72508;45.118;20.728;2024-02-23T17:46:44;15.32;;;6.00;;
82773;SDS011;72508;45.118;20.728;2024-02-23T17:56:49;9.95;;;5.20;;
82773;SDS011;72508;45.118;20.728;2024-02-23T18:06:51;10.60;;;6.68;;
82773;SDS011;72508;45.118;20.728;2024-02-23T18:16:53;9.20;;;4.28;;
82773;SDS011;72508;45.118;20.728;2024-02-23T18:26:54;12.77;;;5.30;;
82773;SDS011;72508;45.118;20.728;2024-02-23T18:36:58;8.82;;;4.43;;
82773;SDS011;72508;45.118;20.728;2024-02-23T18:46:59;8.55;;;3.88;;
82773;SDS011;72508;45.118;20.728;2024-02-23T18:57:01;9.65;;;3.92;;
82773;SDS011;72508;45.118;20.728;2024-02-23T19:07:03;8.45;;;3.05;;
82773;SDS011;72508;45.118;20.728;2024-02-23T19:17:05;9.23;;;4.07;;
82773;SDS011;72508;45.118;20.728;2024-02-23T19:27:07;10.02;;;3.75;;
82773;SDS011;72508;45.118;20.728;2024-02-23T19:37:09;13.50;;;4.18;;
82773;SDS011;72508;45.118;20.728;2024-02-23T19:47:12;9.25;;;4.53;;
82773;SDS011;72508;45.118;20.728;2024-02-23T19:57:14;6.30;;;2.83;;
82773;SDS011;72508;45.118;20.728;2024-02-23T20:07:18;9.68;;;3.83;;
82773;SDS011;72508;45.118;20.728;2024-02-23T20:17:20;8.90;;;4.05;;
82773;SDS011;72508;45.118;20.728;2024-02-23T20:27:22;3.63;;;1.50;;
82773;SDS011;72508;45.118;20.728;2024-02-23T20:37:23;9.55;;;4.47;;
82773;SDS011;72508;45.118;20.728;2024-02-23T20:47:25;6.13;;;2.50;;
82773;SDS011;72508;45.118;20.728;2024-02-23T20:57:27;10.15;;;4.18;;
82773;SDS011;72508;45.118;20.728;2024-02-23T21:07:29;6.55;;;2.40;;
82773;SDS011;72508;45.118;20.728;2024-02-23T21:17:31;4.55;;;2.40;;
82773;SDS011;72508;45.118;20.728;2024-02-23T21:27:34;6.15;;;4.10;;
82773;SDS011;72508;45.118;20.728;2024-02-23T21:37:36;4.35;;;1.75;;
82773;SDS011;72508;45.118;20.728;2024-02-23T21:47:37;3.97;;;1.35;;
82773;SDS011;72508;45.118;20.728;2024-02-23T21:57:39;9.05;;;2.83;;
82773;SDS011;72508;45.118;20.728;2024-02-23T22:07:41;6.72;;;2.78;;
82773;SDS011;72508;45.118;20.728;2024-02-23T22:17:43;7.10;;;4.60;;
82773;SDS011;72508;45.118;20.728;2024-02-23T22:27:44;6.03;;;2.00;;
82773;SDS011;72508;45.118;20.728;2024-02-23T22:37:46;6.35;;;2.55;;
82773;SDS011;72508;45.118;20.728;2024-02-23T22:47:48;4.50;;;2.00;;
82773;SDS011;72508;45.118;20.728;2024-02-23T22:57:49;5.60;;;2.15;;
82773;SDS011;72508;45.118;20.728;2024-02-23T23:07:51;2.80;;;1.65;;
82773;SDS011;72508;45.118;20.728;2024-02-23T23:17:53;4.07;;;1.95;;
82773;SDS011;72508;45.118;20.728;2024-02-23T23:27:55;4.38;;;1.50;;
82773;SDS011;72508;45.118;20.728;2024-02-23T23:37:56;4.50;;;1.88;;
82773;SDS011;72508;45.118;20.728;2024-02-23T23:47:58;3.53;;;2.03;;
82773;SDS011;72508;45.118;20.728;2024-02-23T23:58:00;4.78;;;2.40;;
